createdAt,value
2022-11-10T00:02:08.822Z,101592.81
2022-11-10T00:04:36.496Z,101604.69
2022-11-10T00:07:04.232Z,101604.41
2022-11-10T00:09:33.460Z,101600.44
2022-11-10T00:12:01.127Z,101602.56
2022-11-10T00:14:45.328Z,101599.91
2022-11-10T00:17:12.970Z,101600.41
2022-11-10T00:19:40.601Z,101599.09
2022-11-10T00:22:08.226Z,101599.63
2022-11-10T00:24:37.197Z,101605.72
2022-11-10T00:27:05.027Z,101615.19
2022-11-10T00:29:32.659Z,101611.22
2022-11-10T00:32:00.305Z,101612.53
2022-11-10T00:34:27.941Z,101604.06
2022-11-10T00:36:55.582Z,101620.75
2022-11-10T00:39:23.209Z,101608.56
2022-11-10T00:41:52.459Z,101615.44
2022-11-10T00:44:20.170Z,101611.19
2022-11-10T00:46:47.918Z,101619.66
2022-11-10T00:49:15.573Z,101631.28
2022-11-10T00:51:43.242Z,101626.50
2022-11-10T00:54:10.866Z,101639.47
2022-11-10T00:56:38.530Z,101640.28
2022-11-10T00:59:07.576Z,101647.41
2022-11-10T01:01:35.400Z,101645.81
2022-11-10T01:04:03.506Z,101655.06
2022-11-10T01:06:31.274Z,101660.34
2022-11-10T01:08:58.996Z,101657.22
2022-11-10T01:11:28.879Z,101662.50
2022-11-10T01:13:58.047Z,101660.88
2022-11-10T01:16:28.993Z,101656.91
2022-11-10T01:18:58.757Z,101664.06
2022-11-10T01:21:27.666Z,101661.44
2022-11-10T01:23:55.385Z,101665.13
2022-11-10T01:26:23.762Z,101671.44
2022-11-10T01:28:51.447Z,101667.50
2022-11-10T01:31:22.001Z,101666.69
2022-11-10T01:33:51.047Z,101675.66
2022-11-10T01:36:18.703Z,101679.38
2022-11-10T01:38:46.454Z,101670.09
2022-11-10T01:41:15.356Z,101670.34
2022-11-10T01:43:42.986Z,101678.25
2022-11-10T01:46:11.780Z,101670.59
2022-11-10T01:48:45.073Z,101661.63
2022-11-10T01:51:18.101Z,101660.84
2022-11-10T01:53:50.390Z,101679.56
2022-11-10T01:56:18.744Z,101676.16
2022-11-10T01:58:52.109Z,101694.66
2022-11-10T02:01:19.946Z,101685.38
2022-11-10T02:03:51.401Z,101701.75
2022-11-10T02:06:25.475Z,101703.56
2022-11-10T02:08:54.316Z,101702.78
2022-11-10T02:11:22.804Z,101703.81
2022-11-10T02:13:51.139Z,101713.34
2022-11-10T02:16:20.174Z,101714.38
2022-11-10T02:18:47.791Z,101710.94
2022-11-10T02:21:18.975Z,101715.97
2022-11-10T02:23:50.222Z,101711.75
2022-11-10T02:26:21.487Z,101717.03
2022-11-10T02:28:49.122Z,101712.25
2022-11-10T02:31:16.794Z,101715.69
2022-11-10T02:33:44.448Z,101714.34
2022-11-10T02:36:12.664Z,101707.72
2022-11-10T02:38:41.619Z,101711.44
2022-11-10T02:41:10.204Z,101715.66
2022-11-10T02:43:39.247Z,101723.84
2022-11-10T02:46:07.265Z,101724.09
2022-11-10T02:48:34.928Z,101733.06
2022-11-10T02:51:02.540Z,101733.56
2022-11-10T02:53:30.253Z,101737.25
2022-11-10T02:55:59.288Z,101732.75
2022-11-10T02:58:26.980Z,101739.91
2022-11-10T03:00:54.641Z,101741.47
2022-11-10T03:03:22.704Z,101761.03
2022-11-10T03:05:50.364Z,101767.91
2022-11-10T03:08:18.033Z,101754.66
2022-11-10T03:10:45.740Z,101758.34
2022-11-10T03:13:14.744Z,101757.53
2022-11-10T03:15:42.373Z,101756.75
2022-11-10T03:18:09.984Z,101753.56
2022-11-10T03:20:37.627Z,101753.56
2022-11-10T03:23:06.362Z,101757.28
2022-11-10T03:25:34.280Z,101755.66
2022-11-10T03:28:01.919Z,101764.88
2022-11-10T03:30:32.228Z,101774.91
2022-11-10T03:32:59.873Z,101772.25
2022-11-10T03:35:28.664Z,101779.38
2022-11-10T03:37:56.341Z,101788.09
2022-11-10T03:40:23.961Z,101786.75
2022-11-10T03:42:51.645Z,101781.47
2022-11-10T03:45:19.683Z,101783.56
2022-11-10T03:47:50.017Z,101799.41
2022-11-10T03:50:18.327Z,101791.25
2022-11-10T03:52:47.009Z,101792.31
2022-11-10T03:55:17.596Z,101804.22
2022-11-10T03:57:45.505Z,101811.06
2022-11-10T04:00:14.896Z,101823.25
2022-11-10T04:02:42.566Z,101822.69
2022-11-10T04:05:29.149Z,101832.19
2022-11-10T04:08:18.070Z,101846.75
2022-11-10T04:10:45.903Z,101847.78
2022-11-10T04:13:31.192Z,101846.75
2022-11-10T04:15:58.833Z,101854.41
2022-11-10T04:18:26.575Z,101856.00
2022-11-10T04:20:57.181Z,101868.97
2022-11-10T04:23:30.672Z,101871.88
2022-11-10T04:26:18.632Z,101878.97
2022-11-10T04:28:47.455Z,101877.94
2022-11-10T04:31:16.173Z,101877.16
2022-11-10T04:33:44.825Z,101878.44
2022-11-10T04:36:17.260Z,101880.28
2022-11-10T04:38:45.263Z,101880.28
2022-11-10T04:41:14.291Z,101885.56
2022-11-10T04:43:42.889Z,101882.13
2022-11-10T04:46:22.053Z,101881.34
2022-11-10T04:48:50.389Z,101880.78
2022-11-10T04:51:20.643Z,101877.56
2022-11-10T04:53:48.363Z,101874.94
2022-11-10T04:56:16.788Z,101885.50
2022-11-10T04:58:44.904Z,101892.88
2022-11-10T05:01:13.776Z,101891.28
2022-11-10T05:03:41.992Z,101902.88
2022-11-10T05:06:09.838Z,101901.59
2022-11-10T05:08:39.080Z,101913.94
2022-11-10T05:11:07.107Z,101907.31
2022-11-10T05:13:34.952Z,101908.38
2022-11-10T05:16:03.022Z,101912.03
2022-11-10T05:18:30.748Z,101915.97
2022-11-10T05:20:58.458Z,101910.13
2022-11-10T05:23:44.040Z,101908.56
2022-11-10T05:26:14.580Z,101924.63
2022-11-10T05:28:44.494Z,101928.31
2022-11-10T05:31:13.092Z,101928.31
2022-11-10T05:33:40.725Z,101914.88
2022-11-10T05:36:09.637Z,101920.16
2022-11-10T05:38:42.153Z,101922.25
2022-11-10T05:41:11.112Z,101924.06
2022-11-10T05:43:40.188Z,101924.88
2022-11-10T05:46:07.877Z,101924.34
2022-11-10T05:48:35.517Z,101925.13
2022-11-10T05:51:03.168Z,101928.00
2022-11-10T05:53:30.803Z,101922.97
2022-11-10T05:55:58.405Z,101923.78
2022-11-10T05:58:26.015Z,101924.81
2022-11-10T06:00:55.024Z,101923.78
2022-11-10T06:03:22.870Z,101933.28
2022-11-10T06:05:50.796Z,101945.44
2022-11-10T06:08:18.757Z,101948.91
2022-11-10T06:10:46.359Z,101949.13
2022-11-10T06:13:14.198Z,101954.41
2022-11-10T06:15:46.083Z,101950.19
2022-11-10T06:18:18.026Z,101955.47
2022-11-10T06:20:47.097Z,101956.97
2022-11-10T06:23:16.011Z,101972.81
2022-11-10T06:25:44.564Z,101977.78
2022-11-10T06:28:12.235Z,101993.38
2022-11-10T06:30:40.135Z,101991.53
2022-11-10T06:33:07.876Z,102002.09
2022-11-10T06:35:36.880Z,101997.63
2022-11-10T06:38:06.608Z,102007.38
2022-11-10T06:40:34.608Z,102019.53
2022-11-10T06:43:02.581Z,102011.63
2022-11-10T06:45:30.464Z,102017.94
2022-11-10T06:48:02.468Z,102015.53
2022-11-10T06:50:30.317Z,102017.38
2022-11-10T06:53:00.666Z,102018.41
2022-11-10T06:55:28.783Z,102024.25
2022-11-10T06:57:56.517Z,102034.78
2022-11-10T07:00:25.139Z,102030.31
2022-11-10T07:03:00.285Z,102039.84
2022-11-10T07:05:27.956Z,102051.78
2022-11-10T07:07:55.592Z,102060.25
2022-11-10T07:10:24.610Z,102068.72
2022-11-10T07:12:57.459Z,102076.38
2022-11-10T07:15:25.249Z,102078.53
2022-11-10T07:17:53.681Z,102069.59
2022-11-10T07:20:21.787Z,102074.97
2022-11-10T07:22:49.590Z,102064.13
2022-11-10T07:25:17.465Z,102077.09
2022-11-10T07:27:46.463Z,102072.94
2022-11-10T07:30:14.821Z,102072.44
2022-11-10T07:32:42.459Z,102071.97
2022-11-10T07:35:10.160Z,102070.69
2022-11-10T07:37:37.801Z,102069.63
2022-11-10T07:40:06.297Z,102070.97
2022-11-10T07:42:39.627Z,102067.84
2022-11-10T07:45:10.198Z,102073.47
2022-11-10T07:47:37.895Z,102071.91
2022-11-10T07:50:06.098Z,102090.47
2022-11-10T07:52:34.592Z,102095.25
2022-11-10T07:55:04.352Z,102098.78
2022-11-10T07:57:32.088Z,102097.47
2022-11-10T07:59:59.785Z,102096.50
2022-11-10T08:02:28.870Z,102099.75
2022-11-10T08:04:56.516Z,102097.72
2022-11-10T08:07:24.242Z,102099.13
2022-11-10T08:09:52.004Z,102111.69
2022-11-10T08:12:19.700Z,102096.16
2022-11-10T08:14:47.300Z,102105.56
2022-11-10T08:17:14.920Z,102101.47
2022-11-10T08:19:43.910Z,102107.16
2022-11-10T08:22:11.528Z,102108.69
2022-11-10T08:24:39.205Z,102123.91
2022-11-10T08:27:06.940Z,102137.34
2022-11-10T08:29:34.673Z,102137.97
2022-11-10T08:32:02.429Z,102134.38
2022-11-10T08:34:30.077Z,102138.72
2022-11-10T08:36:59.056Z,102144.63
2022-11-10T08:39:38.528Z,102152.16
2022-11-10T08:42:07.291Z,102151.16
2022-11-10T08:44:34.788Z,102152.53
2022-11-10T08:47:02.426Z,102156.03
2022-11-10T08:49:30.360Z,102163.19
2022-11-10T08:51:59.358Z,102158.41
2022-11-10T08:54:26.981Z,102165.28
2022-11-10T08:56:54.997Z,102164.50
2022-11-10T08:59:22.517Z,102171.44
2022-11-10T09:01:50.137Z,102175.97
2022-11-10T09:04:19.326Z,102186.59
2022-11-10T09:06:47.538Z,102181.31
2022-11-10T09:09:16.723Z,102183.19
2022-11-10T09:11:44.651Z,102168.84
2022-11-10T09:14:15.748Z,102172.28
2022-11-10T09:19:25.103Z,102188.78
2022-11-10T09:21:55.227Z,102180.78
2022-11-10T09:24:30.056Z,102181.59
2022-11-10T09:26:59.571Z,102180.75
2022-11-10T09:29:27.309Z,102192.66
2022-11-10T09:31:54.948Z,102197.94
2022-11-10T09:34:22.591Z,102188.53
2022-11-10T09:36:50.174Z,102179.63
2022-11-10T09:39:18.303Z,102187.28
2022-11-10T09:41:47.482Z,102188.25
2022-11-10T09:44:19.825Z,102187.06
2022-11-10T09:46:50.443Z,102180.03
2022-11-10T09:49:31.981Z,102190.25
2022-11-10T09:52:00.601Z,102203.41
2022-11-10T09:54:37.861Z,102212.34
2022-11-10T09:57:10.996Z,102215.94
2022-11-10T09:59:38.672Z,102230.47
2022-11-10T10:02:18.537Z,102231.84
2022-11-10T10:05:04.652Z,102230.22
2022-11-10T10:07:43.467Z,102237.53
2022-11-10T10:10:18.530Z,102242.44
2022-11-10T10:13:05.619Z,102239.78
2022-11-10T10:15:44.979Z,102244.06
2022-11-10T10:18:28.067Z,102247.53
2022-11-10T10:21:13.896Z,102258.00
2022-11-10T10:26:41.733Z,102272.91
2022-11-10T10:29:12.233Z,102279.75
2022-11-10T10:31:43.347Z,102269.13
2022-11-10T10:34:15.131Z,102270.84
2022-11-10T10:36:44.312Z,102281.50
2022-11-10T10:39:16.081Z,102284.28
2022-11-10T10:41:46.302Z,102283.66
2022-11-10T10:44:17.337Z,102274.56
2022-11-10T10:46:47.517Z,102279.59
2022-11-10T10:49:28.559Z,102262.72
2022-11-10T10:52:06.587Z,102261.66
2022-11-10T10:54:35.785Z,102262.59
2022-11-10T10:57:20.241Z,102263.19
2022-11-10T10:59:49.379Z,102271.31
2022-11-10T11:02:26.949Z,102259.72
2022-11-10T11:05:13.290Z,102259.59
2022-11-10T11:07:41.741Z,102277.25
2022-11-10T11:10:20.261Z,102277.97
2022-11-10T11:12:47.975Z,102277.56
2022-11-10T11:15:22.585Z,102277.78
2022-11-10T11:17:58.152Z,102281.03
2022-11-10T11:20:33.275Z,102285.75
2022-11-10T11:23:08.867Z,102298.88
2022-11-10T11:25:42.840Z,102305.69
2022-11-10T11:31:09.671Z,102324.38
2022-11-10T11:33:44.195Z,102335.34
2022-11-10T11:36:17.898Z,102332.44
2022-11-10T11:38:54.123Z,102339.38
2022-11-10T11:41:39.880Z,102339.69
2022-11-10T11:44:32.425Z,102342.88
2022-11-10T11:47:20.445Z,102333.16
2022-11-10T11:50:05.384Z,102344.25
2022-11-10T11:52:38.457Z,102350.09
2022-11-10T11:55:25.534Z,102346.03
2022-11-10T11:58:10.009Z,102344.47
2022-11-10T12:00:46.261Z,102352.78
2022-11-10T12:03:43.840Z,102348.00
2022-11-10T12:06:32.371Z,102357.56
2022-11-10T12:09:06.342Z,102363.13
2022-11-10T12:11:50.532Z,102348.31
2022-11-10T12:14:26.145Z,102352.44
2022-11-10T12:17:02.167Z,102339.44
2022-11-10T12:19:39.260Z,102341.63
2022-11-10T12:22:14.064Z,102352.00
2022-11-10T12:24:57.032Z,102360.84
2022-11-10T12:27:29.623Z,102353.50
2022-11-10T12:30:02.954Z,102354.59
2022-11-10T12:32:37.988Z,102357.81
2022-11-10T12:35:15.555Z,102360.53
2022-11-10T12:37:47.084Z,102362.09
2022-11-10T12:40:18.841Z,102359.88
2022-11-10T12:42:53.847Z,102369.34
2022-11-10T12:45:23.860Z,102373.63
2022-11-10T12:47:52.522Z,102372.81
2022-11-10T12:50:33.149Z,102374.94
2022-11-10T12:53:05.566Z,102372.66
2022-11-10T12:55:42.775Z,102374.28
2022-11-10T12:58:14.409Z,102374.78
2022-11-10T13:00:45.545Z,102368.72
2022-11-10T13:03:26.888Z,102374.38
2022-11-10T13:05:59.840Z,102370.19
2022-11-10T13:08:32.950Z,102363.50
2022-11-10T13:11:04.269Z,102368.03
2022-11-10T13:13:42.192Z,102358.16
2022-11-10T13:16:11.435Z,102373.88
2022-11-10T13:18:53.908Z,102371.75
2022-11-10T13:22:05.992Z,102369.09
2022-11-10T13:24:34.897Z,102365.84
2022-11-10T13:27:03.972Z,102361.69
2022-11-10T13:29:36.130Z,102361.91
2022-11-10T13:32:29.507Z,102356.19
2022-11-10T13:35:35.547Z,102374.59
2022-11-10T13:38:04.642Z,102360.94
2022-11-10T13:40:37.738Z,102362.84
2022-11-10T13:43:23.134Z,102359.63
2022-11-10T13:46:01.454Z,102357.16
2022-11-10T13:48:42.832Z,102365.25
2022-11-10T13:51:21.489Z,102362.13
2022-11-10T13:54:00.866Z,102361.13
2022-11-10T13:56:47.170Z,102355.06
2022-11-10T13:59:20.437Z,102350.53
2022-11-10T14:01:48.180Z,102347.88
2022-11-10T14:04:39.252Z,102352.28
2022-11-10T14:07:16.874Z,102345.97
2022-11-10T14:09:49.688Z,102338.59
2022-11-10T14:12:25.580Z,102340.22
2022-11-10T14:15:00.857Z,102350.66
2022-11-10T14:17:34.885Z,102354.13
2022-11-10T14:20:03.974Z,102367.47
2022-11-10T14:22:36.184Z,102381.56
2022-11-10T14:25:07.480Z,102377.78
2022-11-10T14:27:38.326Z,102385.53
2022-11-10T14:30:10.882Z,102386.66
2022-11-10T14:32:38.633Z,102384.88
2022-11-10T14:35:07.725Z,102385.41
2022-11-10T14:37:35.395Z,102398.53
2022-11-10T14:40:05.321Z,102388.41
2022-11-10T14:42:35.110Z,102404.16
2022-11-10T14:45:17.564Z,102400.19
2022-11-10T14:47:53.152Z,102408.47
2022-11-10T14:50:23.367Z,102407.19
2022-11-10T14:52:55.035Z,102409.84
2022-11-10T14:55:26.113Z,102405.56
2022-11-10T14:58:05.158Z,102413.00
2022-11-10T15:00:37.260Z,102417.31
2022-11-10T15:03:07.922Z,102415.78
2022-11-10T15:05:36.389Z,102403.00
2022-11-10T15:08:05.662Z,102395.31
2022-11-10T15:10:47.841Z,102396.47
2022-11-10T15:13:38.726Z,102390.34
2022-11-10T15:16:28.087Z,102409.31
2022-11-10T15:18:57.490Z,102408.53
2022-11-10T15:21:30.435Z,102404.81
2022-11-10T15:24:01.501Z,102414.97
2022-11-10T15:26:38.753Z,102408.59
2022-11-10T15:29:06.752Z,102415.53
2022-11-10T15:31:36.647Z,102427.81
2022-11-10T15:34:06.222Z,102441.91
2022-11-10T15:36:35.887Z,102428.34
2022-11-10T15:39:06.948Z,102433.69
2022-11-10T15:41:36.798Z,102442.75
2022-11-10T15:44:19.003Z,102453.66
2022-11-10T15:46:47.724Z,102454.44
2022-11-10T15:49:23.334Z,102464.31
2022-11-10T15:51:52.182Z,102466.19
2022-11-10T15:54:23.240Z,102467.25
2022-11-10T15:56:52.247Z,102463.78
2022-11-10T15:59:19.926Z,102464.84
2022-11-10T16:01:47.871Z,102463.00
2022-11-10T16:04:15.624Z,102459.25
2022-11-10T16:06:43.319Z,102456.56
2022-11-10T16:09:13.077Z,102451.50
2022-11-10T16:11:43.493Z,102456.03
2022-11-10T16:14:16.530Z,102457.38
2022-11-10T16:16:44.693Z,102452.84
2022-11-10T16:19:12.985Z,102465.84
2022-11-10T16:21:40.589Z,102468.25
2022-11-10T16:24:08.625Z,102479.91
2022-11-10T16:26:36.335Z,102481.53
2022-11-10T16:29:04.818Z,102486.59
2022-11-10T16:31:35.054Z,102492.72
2022-11-10T16:34:02.648Z,102481.53
2022-11-10T16:36:33.319Z,102495.84
2022-11-10T16:39:03.903Z,102499.56
2022-11-10T16:41:31.618Z,102504.09
2022-11-10T16:43:59.263Z,102510.75
2022-11-10T16:46:29.205Z,102509.91
2022-11-10T16:49:00.831Z,102515.22
2022-11-10T16:51:30.842Z,102517.06
2022-11-10T16:53:59.470Z,102513.31
2022-11-10T16:56:27.399Z,102526.31
2022-11-10T16:58:54.966Z,102515.41
2022-11-10T17:01:25.062Z,102517.81
2022-11-10T17:03:55.087Z,102523.63
2022-11-10T17:06:25.651Z,102529.22
2022-11-10T17:08:55.349Z,102532.66
2022-11-10T17:11:23.337Z,102521.25
2022-11-10T17:13:50.984Z,102519.09
2022-11-10T17:16:25.540Z,102512.19
2022-11-10T17:18:53.459Z,102510.59
2022-11-10T17:21:22.220Z,102526.78
2022-11-10T17:23:51.627Z,102526.00
2022-11-10T17:26:22.099Z,102534.22
2022-11-10T17:28:50.163Z,102527.00
2022-11-10T17:31:17.829Z,102535.53
2022-11-10T17:33:45.488Z,102531.75
2022-11-10T17:36:15.752Z,102526.97
2022-11-10T17:38:44.281Z,102534.91
2022-11-10T17:41:16.873Z,102536.22
2022-11-10T17:43:45.896Z,102524.50
2022-11-10T17:46:15.019Z,102529.00
2022-11-10T17:48:43.024Z,102534.25
2022-11-10T17:51:11.708Z,102541.38
2022-11-10T17:53:39.449Z,102545.91
2022-11-10T17:56:07.447Z,102545.06
2022-11-10T17:58:36.452Z,102532.56
2022-11-10T18:01:08.479Z,102537.81
2022-11-10T18:03:36.132Z,102533.53
2022-11-10T18:06:06.756Z,102531.88
2022-11-10T18:08:34.408Z,102537.94
2022-11-10T18:11:02.418Z,102530.25
2022-11-10T18:13:29.908Z,102534.69
2022-11-10T18:16:00.569Z,102535.78
2022-11-10T18:18:28.211Z,102531.19
2022-11-10T18:20:57.992Z,102536.47
2022-11-10T18:23:26.029Z,102542.25
2022-11-10T18:25:53.778Z,102541.16
2022-11-10T18:28:21.655Z,102543.25
2022-11-10T18:30:49.302Z,102538.19
2022-11-10T18:33:18.364Z,102541.09
2022-11-10T18:35:45.994Z,102531.78
2022-11-10T18:38:14.294Z,102538.13
2022-11-10T18:40:41.893Z,102527.78
2022-11-10T18:43:09.551Z,102531.47
2022-11-10T18:45:37.436Z,102536.22
2022-11-10T18:48:05.745Z,102536.75
2022-11-10T18:50:37.860Z,102533.53
2022-11-10T18:53:05.796Z,102527.94
2022-11-10T18:55:33.409Z,102540.09
2022-11-10T18:58:01.064Z,102549.34
2022-11-10T19:00:28.751Z,102529.22
2022-11-10T19:02:56.367Z,102553.66
2022-11-10T19:05:24.772Z,102543.09
2022-11-10T19:07:53.805Z,102545.75
2022-11-10T19:10:21.467Z,102537.78
2022-11-10T19:12:49.105Z,102550.75
2022-11-10T19:15:16.911Z,102559.22
2022-11-10T19:17:44.538Z,102563.16
2022-11-10T19:20:14.647Z,102566.31
2022-11-10T19:22:42.494Z,102567.84
2022-11-10T19:25:11.607Z,102567.53
2022-11-10T19:27:39.284Z,102577.84
2022-11-10T19:30:07.778Z,102574.09
2022-11-10T19:32:35.436Z,102575.94
2022-11-10T19:35:04.261Z,102573.53
2022-11-10T19:37:34.909Z,102577.72
2022-11-10T19:40:02.970Z,102580.63
2022-11-10T19:42:31.987Z,102584.56
2022-11-10T19:45:00.487Z,102582.41
2022-11-10T19:47:28.354Z,102587.16
2022-11-10T19:49:56.048Z,102582.66
2022-11-10T19:52:23.750Z,102590.84
2022-11-10T19:54:51.360Z,102592.13
2022-11-10T19:57:19.033Z,102593.44
2022-11-10T19:59:48.039Z,102604.28
2022-11-10T20:02:15.754Z,102593.44
2022-11-10T20:04:57.296Z,102594.47
2022-11-10T20:07:42.368Z,102591.03
2022-11-10T20:10:11.047Z,102598.97
2022-11-10T20:12:38.663Z,102598.16
2022-11-10T20:15:09.312Z,102597.38
2022-11-10T20:17:36.969Z,102585.97
2022-11-10T20:20:05.886Z,102590.72
2022-11-10T20:22:33.536Z,102590.66
2022-11-10T20:25:01.480Z,102598.06
2022-11-10T20:27:29.911Z,102589.84
2022-11-10T20:29:57.765Z,102588.47
2022-11-10T20:32:27.456Z,102589.78
2022-11-10T20:34:55.140Z,102593.50
2022-11-10T20:37:22.797Z,102598.22
2022-11-10T20:39:50.423Z,102595.81
2022-11-10T20:42:18.104Z,102604.81
2022-11-10T20:44:45.730Z,102604.81
2022-11-10T20:47:13.363Z,102608.50
2022-11-10T20:49:42.683Z,102616.69
2022-11-10T20:52:10.464Z,102620.38
2022-11-10T20:54:38.153Z,102621.19
2022-11-10T20:57:14.278Z,102618.22
2022-11-10T20:59:41.989Z,102608.13
2022-11-10T21:02:11.317Z,102620.81
2022-11-10T21:04:43.009Z,102621.28
2022-11-10T21:07:12.471Z,102617.03
2022-11-10T21:09:40.153Z,102626.81
2022-11-10T21:12:25.779Z,102612.22
2022-11-10T21:14:53.401Z,102620.66
2022-11-10T21:17:21.046Z,102612.91
2022-11-10T21:19:49.426Z,102613.19
2022-11-10T21:22:18.396Z,102614.25
2022-11-10T21:24:46.025Z,102619.75
2022-11-10T21:27:13.684Z,102631.16
2022-11-10T21:29:42.324Z,102643.84
2022-11-10T21:32:09.964Z,102654.91
2022-11-10T21:34:37.588Z,102653.31
2022-11-10T21:37:05.226Z,102663.31
2022-11-10T21:39:34.218Z,102667.03
2022-11-10T21:42:01.843Z,102676.81
2022-11-10T21:44:29.525Z,102677.63
2022-11-10T21:46:57.324Z,102690.88
2022-11-10T21:49:24.928Z,102683.13
2022-11-10T21:51:53.566Z,102685.78
2022-11-10T21:54:21.296Z,102683.13
2022-11-10T21:56:50.303Z,102693.72
2022-11-10T21:59:19.195Z,102690.88
2022-11-10T22:01:46.912Z,102697.75
2022-11-10T22:04:15.264Z,102685.56
2022-11-10T22:07:00.727Z,102681.06
2022-11-10T22:09:45.811Z,102679.72
2022-11-10T22:12:33.023Z,102690.88
2022-11-10T22:15:18.444Z,102683.94
2022-11-10T22:18:03.731Z,102681.81
2022-11-10T22:20:31.408Z,102688.38
2022-11-10T22:22:59.094Z,102715.63
2022-11-10T22:25:26.792Z,102709.78
2022-11-10T22:27:55.745Z,102710.84
2022-11-10T22:30:23.404Z,102699.69
2022-11-10T22:32:51.098Z,102712.91
2022-11-10T22:35:32.637Z,102713.69
2022-11-10T22:38:05.276Z,102720.63
2022-11-10T22:40:50.857Z,102711.16
2022-11-10T22:43:36.588Z,102719.66
2022-11-10T22:46:04.234Z,102722.63
2022-11-10T22:48:33.100Z,102728.50
2022-11-10T22:51:01.304Z,102709.16
2022-11-10T22:53:29.027Z,102736.44
2022-11-10T22:56:00.539Z,102727.47
2022-11-10T22:58:29.553Z,102733.53
2022-11-10T23:01:05.243Z,102733.53
2022-11-10T23:03:33.085Z,102737.25
2022-11-10T23:06:00.748Z,102739.34
2022-11-10T23:08:28.468Z,102732.31
2022-11-10T23:11:00.735Z,102740.75
2022-11-10T23:13:29.768Z,102750.19
2022-11-10T23:16:02.212Z,102753.34
2022-11-10T23:18:30.117Z,102757.03
2022-11-10T23:20:59.101Z,102746.88
2022-11-10T23:23:27.141Z,102737.81
2022-11-10T23:25:58.445Z,102744.16
2022-11-10T23:28:26.961Z,102742.44
2022-11-10T23:30:56.160Z,102741.84
2022-11-10T23:33:25.782Z,102743.94
2022-11-10T23:35:56.360Z,102740.13
2022-11-10T23:38:24.070Z,102741.66
2022-11-10T23:40:56.475Z,102745.56
2022-11-10T23:43:24.669Z,102739.72
2022-11-10T23:46:06.483Z,102749.97
2022-11-10T23:48:35.982Z,102751.00
2022-11-10T23:51:04.167Z,102738.81
2022-11-10T23:53:31.840Z,102740.66
2022-11-10T23:56:00.644Z,102745.72
2022-11-10T23:58:29.088Z,102747.34
